Time;durP1;ratioP1;P1;durP2;ratioP2;P2;SDS_P1;SDS_P2;PMS_P1;PMS_P2;Temp;Humidity;BMP_temperature;BMP_pressure;BME280_temperature;BME280_humidity;BME280_pressure;Samples;Min_cycle;Max_cycle;Signal;HPM_P1;HPM_P2
2023/03/13 00:01:36;;;;;;;0.15;0.10;;;;;;;11.14;100.00;97143.00;4969247;28;20043;-83
2023/03/13 00:04:06;;;;;;;0.30;0.10;;;;;;;11.11;100.00;97141.63;4962443;28;20058;-82
2023/03/13 00:06:39;;;;;;;1.15;0.10;;;;;;;11.11;100.00;97131.06;4950342;28;20062;-83
2023/03/13 00:09:11;;;;;;;0.15;0.10;;;;;;;11.14;100.00;97140.34;4953514;28;20036;-82
2023/03/13 00:11:39;;;;;;;0.20;0.10;;;;;;;11.11;100.00;97143.47;4967043;28;20198;-82
2023/03/13 00:14:09;;;;;;;0.57;0.20;;;;;;;11.13;100.00;97146.69;4969086;28;20047;-82
2023/03/13 00:16:38;;;;;;;3.28;0.10;;;;;;;11.12;100.00;97142.41;4938880;28;20031;-82
2023/03/13 00:19:08;;;;;;;0.60;0.20;;;;;;;11.15;100.00;97123.44;4931400;28;20039;-82
2023/03/13 00:21:36;;;;;;;0.98;0.10;;;;;;;11.10;100.00;97123.34;4946600;28;20039;-82
2023/03/13 00:24:09;;;;;;;1.35;0.10;;;;;;;11.10;100.00;97108.28;4960271;28;20467;-82
2023/03/13 00:26:39;;;;;;;1.15;0.25;;;;;;;11.07;100.00;97102.69;4950195;29;20094;-82
2023/03/13 00:29:08;;;;;;;1.40;0.10;;;;;;;11.08;100.00;97101.63;4939408;28;20038;-83
2023/03/13 00:31:37;;;;;;;0.40;0.10;;;;;;;11.07;100.00;97097.38;4956155;28;20059;-82
2023/03/13 00:34:05;;;;;;;0.90;0.13;;;;;;;11.03;100.00;97087.28;4953824;28;20078;-83
2023/03/13 00:36:34;;;;;;;0.32;0.03;;;;;;;11.04;100.00;97082.78;4937180;28;20458;-82
2023/03/13 00:39:03;;;;;;;0.20;0.10;;;;;;;10.99;100.00;97077.41;4935055;28;20125;-83
2023/03/13 00:41:33;;;;;;;0.75;0.20;;;;;;;10.98;100.00;97073.13;4937262;29;20050;-82
2023/03/13 00:44:01;;;;;;;0.73;0.00;;;;;;;10.95;100.00;97084.97;4954114;28;20069;-83
2023/03/13 00:46:32;;;;;;;0.08;0.00;;;;;;;10.97;100.00;97079.47;4947550;28;20786;-82
2023/03/13 00:49:02;;;;;;;1.02;0.20;;;;;;;11.02;100.00;97082.22;4902008;28;20046;-83
2023/03/13 00:51:32;;;;;;;0.55;0.15;;;;;;;11.02;100.00;97076.94;4913033;28;21074;-83
2023/03/13 00:54:03;;;;;;;0.43;0.10;;;;;;;11.05;100.00;97081.75;4928527;29;20426;-83
2023/03/13 00:56:34;;;;;;;0.30;0.20;;;;;;;11.07;100.00;97078.88;4920894;29;20118;-82
2023/03/13 00:59:03;;;;;;;1.38;0.10;;;;;;;11.07;100.00;97061.16;4942507;29;20054;-83
2023/03/13 01:01:34;;;;;;;0.32;0.10;;;;;;;11.09;100.00;97069.69;4946490;29;20401;-82
2023/03/13 01:04:11;;;;;;;0.98;0.25;;;;;;;11.09;100.00;97064.41;4918386;28;20047;-82
2023/03/13 01:06:44;;;;;;;0.47;0.20;;;;;;;11.11;100.00;97061.53;4936760;29;20035;-83
2023/03/13 01:09:16;;;;;;;0.90;0.20;;;;;;;11.12;100.00;97044.63;4946963;28;20689;-82
2023/03/13 01:11:46;;;;;;;1.55;0.20;;;;;;;11.13;100.00;97047.03;4934064;29;20050;-82
2023/03/13 01:14:19;;;;;;;1.38;0.30;;;;;;;11.15;100.00;97034.41;4895330;29;20042;-82
2023/03/13 01:16:47;;;;;;;0.50;0.20;;;;;;;11.15;100.00;97030.94;4931766;29;20059;-82
2023/03/13 01:19:16;;;;;;;0.05;0.00;;;;;;;11.15;100.00;97025.66;4932494;29;20042;-82
2023/03/13 01:21:47;;;;;;;1.10;0.00;;;;;;;11.17;100.00;97023.59;4921010;29;20065;-82
2023/03/13 01:24:19;;;;;;;1.00;0.20;;;;;;;11.17;100.00;97013.00;4920572;29;20031;-82
2023/03/13 01:26:49;;;;;;;1.30;0.20;;;;;;;11.15;100.00;96997.38;4950748;28;20479;-82
2023/03/13 01:29:17;;;;;;;0.85;0.40;;;;;;;11.13;100.00;96988.88;4937706;29;20046;-82
2023/03/13 01:31:45;;;;;;;0.57;0.20;;;;;;;11.09;100.00;96982.47;4921795;28;20051;-82
2023/03/13 01:34:13;;;;;;;1.35;0.20;;;;;;;11.10;100.00;96968.19;4912849;29;20077;-83
2023/03/13 01:36:42;;;;;;;2.10;0.40;;;;;;;11.06;100.00;96967.06;4916965;29;20054;-82
2023/03/13 01:39:12;;;;;;;2.30;0.40;;;;;;;11.09;100.00;96961.31;4915564;29;20138;-82
2023/03/13 01:41:42;;;;;;;0.75;0.20;;;;;;;11.11;100.00;96953.16;4910664;29;20055;-82
2023/03/13 01:44:22;;;;;;;1.08;0.30;;;;;;;11.09;100.00;96950.75;4937812;29;20049;-82
2023/03/13 01:46:52;;;;;;;0.82;0.20;;;;;;;11.06;100.00;96951.22;4934645;29;20043;-82
2023/03/13 01:49:34;;;;;;;1.85;0.20;;;;;;;11.02;100.00;96940.31;4955144;28;20038;-83
2023/03/13 01:52:11;;;;;;;2.25;0.20;;;;;;;11.00;100.00;96946.88;4953507;28;20042;-82
2023/03/13 01:54:51;;;;;;;3.15;0.20;;;;;;;10.98;100.00;96947.09;4953871;28;20058;-83
2023/03/13 01:57:30;;;;;;;4.10;0.30;;;;;;;10.97;100.00;96949.97;4936557;29;20045;-82
2023/03/13 02:00:09;;;;;;;3.38;0.40;;;;;;;10.95;100.00;96949.41;4936139;28;20053;-82
2023/03/13 02:02:51;;;;;;;3.97;0.43;;;;;;;10.92;100.00;96943.53;4954952;28;20045;-82
2023/03/13 02:05:23;;;;;;;2.40;0.52;;;;;;;10.88;100.00;96944.25;4965197;28;20027;-82
2023/03/13 02:08:01;;;;;;;2.08;0.50;;;;;;;10.88;100.00;96941.59;4932081;28;20478;-83
2023/03/13 02:10:37;;;;;;;4.25;0.70;;;;;;;10.85;100.00;96937.59;4938533;28;20133;-83
2023/03/13 02:13:05;;;;;;;3.53;0.68;;;;;;;10.80;100.00;96932.19;4938441;28;20179;-82
2023/03/13 02:15:33;;;;;;;6.07;0.70;;;;;;;10.82;100.00;96929.31;4970829;28;20031;-82
2023/03/13 02:18:01;;;;;;;7.13;1.35;;;;;;;10.82;100.00;96922.22;4951194;28;20118;-83
2023/03/13 02:20:31;;;;;;;10.02;1.40;;;;;;;10.84;100.00;96914.88;4965985;28;20114;-82
2023/03/13 02:23:24;;;;;;;6.07;1.27;;;;;;;10.87;100.00;96897.72;4953548;28;20035;-82
2023/03/13 02:25:54;;;;;;;11.73;1.80;;;;;;;10.84;100.00;96898.19;4944382;28;20465;-83
2023/03/13 02:28:33;;;;;;;10.15;2.22;;;;;;;10.86;100.00;96888.22;4933586;29;20039;-83
2023/03/13 02:31:06;;;;;;;13.82;1.98;;;;;;;10.87;100.00;96884.53;4936001;28;20039;-83
2023/03/13 02:33:39;;;;;;;9.02;1.85;;;;;;;10.86;100.00;96881.06;4939263;28;20035;-83
2023/03/13 02:36:13;;;;;;;17.98;2.67;;;;;;;10.87;100.00;96868.66;4958209;28;20023;-82
2023/03/13 02:38:51;;;;;;;16.35;2.72;;;;;;;10.88;100.00;96862.34;4954405;28;20129;-82
2023/03/13 02:41:23;;;;;;;13.18;2.50;;;;;;;10.88;100.00;96863.16;4948596;29;20107;-82
2023/03/13 02:43:52;;;;;;;21.42;2.90;;;;;;;10.88;100.00;96849.13;4952041;28;20558;-82
2023/03/13 02:46:21;;;;;;;16.52;3.05;;;;;;;10.88;100.00;96843.84;4945285;28;20050;-83
2023/03/13 02:48:56;;;;;;;19.58;3.05;;;;;;;10.88;100.00;96839.38;4961376;28;20114;-83
2023/03/13 02:51:45;;;;;;;18.90;3.63;;;;;;;10.87;100.00;96821.13;4929891;28;20033;-82
2023/03/13 02:54:21;;;;;;;20.95;3.17;;;;;;;10.85;100.00;96826.63;4965599;28;20030;-82
2023/03/13 02:56:58;;;;;;;19.60;3.08;;;;;;;10.82;100.00;96810.44;4938243;28;20026;-82
2023/03/13 02:59:28;;;;;;;21.92;3.33;;;;;;;10.76;100.00;96805.09;4919406;29;20130;-83
2023/03/13 03:01:59;;;;;;;19.40;2.88;;;;;;;10.73;100.00;96800.28;4951822;28;20037;-82
2023/03/13 03:04:27;;;;;;;10.50;1.83;;;;;;;10.71;100.00;96799.72;4954414;28;20046;-82
2023/03/13 03:06:56;;;;;;;13.55;2.17;;;;;;;10.67;100.00;96796.72;4945558;28;20031;-83
2023/03/13 03:09:26;;;;;;;18.67;2.30;;;;;;;10.65;100.00;96790.09;4920900;28;20033;-83
2023/03/13 03:11:57;;;;;;;13.25;2.15;;;;;;;10.58;100.00;96782.28;4942155;28;20049;-82
2023/03/13 03:14:29;;;;;;;13.93;1.90;;;;;;;10.59;100.00;96777.81;4959116;28;20061;-83
2023/03/13 03:16:57;;;;;;;11.43;1.67;;;;;;;10.48;100.00;96777.63;4955569;28;20037;-82
2023/03/13 03:19:26;;;;;;;6.65;1.25;;;;;;;10.44;100.00;96771.19;4952001;28;20492;-83
2023/03/13 03:21:54;;;;;;;4.40;0.82;;;;;;;10.38;100.00;96764.97;4951672;28;20046;-82
2023/03/13 03:24:22;;;;;;;4.25;0.70;;;;;;;10.37;100.00;96767.84;4963789;28;20030;-83
2023/03/13 03:26:50;;;;;;;3.50;0.60;;;;;;;10.29;100.00;96755.84;4964621;28;20042;-83
2023/03/13 03:29:26;;;;;;;1.95;0.20;;;;;;;10.21;100.00;96735.88;4943195;28;20133;-83
2023/03/13 03:31:56;;;;;;;1.50;0.30;;;;;;;10.09;100.00;96727.22;4945170;28;20502;-83
2023/03/13 03:34:24;;;;;;;1.08;0.30;;;;;;;10.00;100.00;96747.88;4937701;28;20134;-83
2023/03/13 03:36:52;;;;;;;4.95;1.02;;;;;;;9.89;100.00;96762.69;4969709;28;20046;-83
2023/03/13 03:39:20;;;;;;;0.17;0.10;;;;;;;9.83;100.00;96758.31;4965830;28;20380;-82
2023/03/13 03:41:48;;;;;;;2.72;0.40;;;;;;;9.72;100.00;96760.75;4950405;28;20039;-83
2023/03/13 03:44:16;;;;;;;0.77;0.15;;;;;;;9.66;100.00;96741.38;4940410;28;20026;-84
2023/03/13 03:47:03;;;;;;;3.38;0.30;;;;;;;9.61;100.00;96736.00;4970485;28;20123;-83
2023/03/13 03:49:37;;;;;;;0.25;0.10;;;;;;;9.60;100.00;96730.94;4974563;28;20061;-84
2023/03/13 03:52:05;;;;;;;6.78;0.25;;;;;;;9.59;100.00;96738.06;4970936;28;20523;-83
2023/03/13 03:54:36;;;;;;;0.95;0.20;;;;;;;9.58;100.00;96744.38;4955537;28;20522;-83
2023/03/13 03:57:05;;;;;;;1.08;0.22;;;;;;;9.58;100.00;96752.28;4970117;28;20031;-84
2023/03/13 03:59:33;;;;;;;1.40;0.30;;;;;;;9.58;100.00;96769.91;4933702;28;20135;-84
2023/03/13 04:02:03;;;;;;;0.90;0.20;;;;;;;9.56;100.00;96772.78;4958367;28;20539;-84
2023/03/13 04:04:33;;;;;;;0.90;0.20;;;;;;;9.51;100.00;96764.75;4951859;28;20479;-83
2023/03/13 04:07:09;;;;;;;1.88;0.40;;;;;;;9.50;100.00;96747.34;4955944;28;20388;-83
2023/03/13 04:09:38;;;;;;;3.60;0.40;;;;;;;9.50;100.00;96729.69;4946556;29;20090;-83
2023/03/13 04:12:07;;;;;;;0.88;0.20;;;;;;;9.50;100.00;96740.25;4960095;28;20058;-83
2023/03/13 04:14:40;;;;;;;1.95;0.30;;;;;;;9.52;100.00;96746.06;4955717;28;20042;-83
2023/03/13 04:17:10;;;;;;;3.05;0.50;;;;;;;9.50;100.00;96726.25;4934412;29;20570;-82
2023/03/13 04:19:38;;;;;;;3.95;0.55;;;;;;;9.50;100.00;96719.16;4926766;28;20089;-82
2023/03/13 04:22:06;;;;;;;1.13;0.30;;;;;;;9.58;100.00;96719.81;4916780;29;20402;-83
2023/03/13 04:24:34;;;;;;;1.33;0.20;;;;;;;9.58;100.00;96702.19;4956418;28;20505;-82
2023/03/13 04:27:05;;;;;;;1.85;0.38;;;;;;;9.62;100.00;96691.97;4947942;28;20031;-82
2023/03/13 04:29:34;;;;;;;4.25;0.40;;;;;;;9.65;100.00;96694.94;4956762;28;20035;-83
2023/03/13 04:32:22;;;;;;;3.78;0.52;;;;;;;9.64;100.00;96700.44;4969266;28;20126;-82
2023/03/13 04:35:12;;;;;;;3.80;0.50;;;;;;;9.70;100.00;96704.00;4946141;28;20038;-82
2023/03/13 04:37:46;;;;;;;6.45;0.60;;;;;;;9.67;100.00;96698.16;4939551;28;20122;-82
2023/03/13 04:40:38;;;;;;;3.70;0.60;;;;;;;9.72;100.00;96694.00;4961271;28;20032;-83
2023/03/13 04:43:26;;;;;;;7.20;0.90;;;;;;;9.71;100.00;96687.97;4938773;29;20047;-82
2023/03/13 04:46:07;;;;;;;5.90;1.08;;;;;;;9.73;100.00;96693.78;4942304;28;20057;-82
2023/03/13 04:49:13;;;;;;;4.38;0.93;;;;;;;9.74;100.00;96694.59;4932857;29;20071;-82
2023/03/13 04:52:00;;;;;;;9.75;1.58;;;;;;;9.70;100.00;96688.19;4965374;28;20058;-82
2023/03/13 04:54:47;;;;;;;5.68;1.02;;;;;;;9.66;100.00;96693.94;4958085;28;20062;-82
2023/03/13 04:57:34;;;;;;;4.13;0.60;;;;;;;9.65;100.00;96688.88;4970823;28;20043;-82
2023/03/13 05:00:22;;;;;;;3.08;0.65;;;;;;;9.58;100.00;96685.56;4956373;28;20042;-82
2023/03/13 05:03:16;;;;;;;2.42;0.32;;;;;;;9.52;100.00;96688.06;4926749;28;20043;-82
2023/03/13 05:06:02;;;;;;;4.95;0.40;;;;;;;9.43;100.00;96690.28;4944661;28;20055;-83
2023/03/13 05:08:57;;;;;;;4.65;0.50;;;;;;;9.35;100.00;96680.06;4953473;28;20046;-83
2023/03/13 05:11:54;;;;;;;0.82;0.20;;;;;;;9.24;100.00;96686.94;4947900;28;20491;-82
2023/03/13 05:14:44;;;;;;;1.67;0.30;;;;;;;9.23;100.00;96688.00;4954185;28;20549;-83
2023/03/13 05:17:47;;;;;;;2.45;0.28;;;;;;;9.17;100.00;96679.16;4955039;28;20047;-83
2023/03/13 05:20:26;;;;;;;2.20;0.20;;;;;;;9.21;100.00;96686.59;4926498;28;20039;-82
2023/03/13 05:23:06;;;;;;;2.00;0.20;;;;;;;9.21;100.00;96679.50;4954120;28;20534;-82
2023/03/13 05:25:55;;;;;;;1.13;0.20;;;;;;;9.23;100.00;96685.34;4955098;28;20089;-82
2023/03/13 05:28:40;;;;;;;3.00;0.40;;;;;;;9.23;100.00;96680.09;4944169;28;20038;-82
2023/03/13 05:31:30;;;;;;;4.50;0.40;;;;;;;9.28;100.00;96682.03;4953707;28;20045;-83
2023/03/13 05:34:18;;;;;;;5.15;0.43;;;;;;;9.30;100.00;96683.38;4954268;28;20080;-82
2023/03/13 05:37:13;;;;;;;8.27;0.73;;;;;;;9.35;100.00;96689.81;4939528;28;20102;-82
2023/03/13 05:39:43;;;;;;;5.78;0.50;;;;;;;9.36;100.00;96686.16;4952648;28;20046;-82
2023/03/13 05:42:37;;;;;;;4.68;0.80;;;;;;;9.38;100.00;96684.88;4956234;28;20050;-83
2023/03/13 05:45:27;;;;;;;8.88;1.08;;;;;;;9.43;100.00;96690.28;4979484;28;20043;-82
2023/03/13 05:48:10;;;;;;;5.60;1.13;;;;;;;9.43;100.00;96686.81;4958708;28;20046;-82
2023/03/13 05:51:14;;;;;;;10.27;1.50;;;;;;;9.45;100.00;96678.69;4887640;29;20123;-82
2023/03/13 05:54:11;;;;;;;13.95;1.77;;;;;;;9.45;100.00;96687.41;4928852;28;20045;-82
2023/03/13 05:57:07;;;;;;;11.35;1.83;;;;;;;9.47;100.00;96680.06;4952987;28;20074;-82
2023/03/13 05:59:54;;;;;;;15.05;1.80;;;;;;;9.47;100.00;96674.81;4970558;28;20026;-82
2023/03/13 06:02:40;;;;;;;;;;;;;;;9.42;100.00;96670.22;4970599;28;20047;-82
2023/03/13 06:05:13;;;;;;;12.07;1.95;;;;;;;9.48;100.00;96679.03;4969722;28;20029;-82
2023/03/13 06:07:43;;;;;;;11.57;1.98;;;;;;;9.48;100.00;96679.03;4930829;28;20038;-82
2023/03/13 06:10:12;;;;;;;8.30;1.58;;;;;;;9.50;100.00;96679.63;4969493;28;20035;-82
2023/03/13 06:12:40;;;;;;;11.70;1.40;;;;;;;9.46;100.00;96683.72;4954991;28;20502;-82
2023/03/13 06:15:10;;;;;;;14.40;1.75;;;;;;;9.49;100.00;96683.25;4941708;28;20077;-82
2023/03/13 06:17:56;;;;;;;17.45;2.28;;;;;;;9.48;100.00;96681.66;4954806;28;20494;-82
2023/03/13 06:20:26;;;;;;;18.30;2.15;;;;;;;9.50;100.00;96676.97;4954554;28;20368;-83
2023/03/13 06:22:55;;;;;;;17.40;2.40;;;;;;;9.52;100.00;96687.28;4952612;28;20058;-82
2023/03/13 06:25:24;;;;;;;13.23;1.88;;;;;;;9.50;100.00;96674.34;4938167;28;20050;-82
2023/03/13 06:27:53;;;;;;;14.07;1.95;;;;;;;9.52;100.00;96666.97;4950307;28;20053;-82
2023/03/13 06:30:20;;;;;;;12.20;1.27;;;;;;;9.46;100.00;96665.28;4972214;28;20368;-82
2023/03/13 06:32:49;;;;;;;12.18;1.52;;;;;;;9.50;100.00;96668.25;4961665;28;20113;-83
2023/03/13 06:35:17;;;;;;;13.18;1.63;;;;;;;9.49;100.00;96669.31;4932568;29;20031;-83
2023/03/13 06:37:47;;;;;;;10.43;1.42;;;;;;;9.50;100.00;96676.97;4951138;28;20042;-81
2023/03/13 06:40:17;;;;;;;8.55;1.33;;;;;;;9.52;100.00;96674.09;4945588;28;20027;-82
2023/03/13 06:42:46;;;;;;;8.02;0.90;;;;;;;9.50;100.00;96676.97;4938291;28;20391;-82
2023/03/13 06:45:14;;;;;;;9.13;1.85;;;;;;;9.49;100.00;96666.66;4981583;28;20034;-82
2023/03/13 06:47:42;;;;;;;8.10;0.90;;;;;;;9.50;100.00;96674.34;4951289;28;20729;-82
2023/03/13 06:50:10;;;;;;;7.97;0.98;;;;;;;9.48;100.00;96675.59;4970352;28;20034;-81
2023/03/13 06:52:38;;;;;;;8.32;1.67;;;;;;;9.49;100.00;96677.22;4952972;28;20050;-82
2023/03/13 06:55:09;;;;;;;10.05;1.20;;;;;;;9.50;100.00;96676.16;4943501;29;20062;-82
2023/03/13 06:57:39;;;;;;;8.18;1.25;;;;;;;9.49;100.00;96679.84;4935166;29;20424;-82
2023/03/13 07:00:11;;;;;;;7.82;1.08;;;;;;;9.49;100.00;96670.09;4951543;28;20062;-82
2023/03/13 07:02:40;;;;;;;7.60;1.42;;;;;;;9.49;100.00;96677.22;4954217;28;20094;-82
2023/03/13 07:05:08;;;;;;;6.07;1.02;;;;;;;9.48;100.00;96671.13;4950494;28;20043;-82
2023/03/13 07:07:35;;;;;;;7.45;1.05;;;;;;;9.49;100.00;96674.56;4969208;28;20093;-82
2023/03/13 07:10:03;;;;;;;9.05;0.90;;;;;;;9.46;100.00;96675.81;4967807;28;20035;-82
2023/03/13 07:12:36;;;;;;;15.00;1.25;;;;;;;9.47;100.00;96672.16;4950038;28;20039;-82
2023/03/13 07:15:05;;;;;;;8.55;1.35;;;;;;;9.46;100.00;96670.53;4949884;28;20038;-82
2023/03/13 07:17:33;;;;;;;9.35;1.20;;;;;;;9.47;100.00;96676.63;4914485;28;20062;-81
2023/03/13 07:20:01;;;;;;;12.82;2.25;;;;;;;9.46;100.00;96678.44;4953659;28;20507;-82
2023/03/13 07:22:31;;;;;;;13.18;1.70;;;;;;;9.51;100.00;96681.22;4967241;28;20492;-82
2023/03/13 07:25:01;;;;;;;6.05;1.30;;;;;;;9.52;100.00;96682.81;4961056;28;20042;-81
2023/03/13 07:27:31;;;;;;;10.15;2.30;;;;;;;9.51;100.00;96686.47;4954588;28;20034;-82
2023/03/13 07:30:01;;;;;;;14.38;2.10;;;;;;;9.54;100.00;96690.47;4937301;28;20039;-81
2023/03/13 07:32:32;;;;;;;17.27;2.70;;;;;;;9.58;100.00;96688.19;4944916;28;20019;-82
2023/03/13 07:35:03;;;;;;;21.70;2.85;;;;;;;9.59;100.00;96693.22;4948299;28;20050;-82
2023/03/13 07:37:33;;;;;;;17.13;2.65;;;;;;;9.61;100.00;96687.72;4954683;28;20043;-82
2023/03/13 07:40:03;;;;;;;25.23;4.38;;;;;;;9.61;100.00;96690.38;4946623;28;20102;-82
2023/03/13 07:42:33;;;;;;;26.20;3.67;;;;;;;9.63;100.00;96691.75;4949864;28;20567;-82
2023/03/13 07:45:03;;;;;;;35.30;4.15;;;;;;;9.63;100.00;96698.84;4969714;28;20089;-82
2023/03/13 07:47:35;;;;;;;33.53;4.40;;;;;;;9.64;100.00;96701.25;4948052;28;20452;-82
2023/03/13 07:50:03;;;;;;;30.75;4.45;;;;;;;9.64;100.00;96705.72;4936819;28;20046;-82
2023/03/13 07:52:31;;;;;;;33.33;4.38;;;;;;;9.67;100.00;96710.53;4950433;28;20495;-82
2023/03/13 07:54:59;;;;;;;32.42;5.32;;;;;;;9.66;100.00;96709.75;4967408;28;20066;-82
2023/03/13 07:57:28;;;;;;;30.65;4.78;;;;;;;9.67;100.00;96708.72;4962943;28;20043;-82
2023/03/13 07:59:55;;;;;;;33.85;4.10;;;;;;;9.69;100.00;96703.19;4946956;28;20034;-82
2023/03/13 08:02:24;;;;;;;35.72;4.38;;;;;;;9.75;100.00;96706.72;4959112;28;20541;-82
2023/03/13 08:04:53;;;;;;;43.45;4.88;;;;;;;9.77;100.00;96702.03;4920202;28;20203;-82
2023/03/13 08:07:21;;;;;;;26.23;4.40;;;;;;;9.81;100.00;96703.16;4969427;28;20041;-82
2023/03/13 08:09:48;;;;;;;33.05;4.70;;;;;;;9.79;100.00;96705.25;4938355;28;20038;-82
2023/03/13 08:12:16;;;;;;;27.77;4.35;;;;;;;9.84;100.00;96705.38;4934686;28;20479;-82
2023/03/13 08:14:44;;;;;;;30.77;4.35;;;;;;;9.85;100.00;96708.78;4954067;28;20031;-82
2023/03/13 08:17:14;;;;;;;29.25;5.05;;;;;;;9.87;100.00;96701.47;4934359;28;20035;-82
2023/03/13 08:19:43;;;;;;;29.83;5.20;;;;;;;9.90;100.00;96711.53;4943187;28;20050;-82
2023/03/13 08:22:10;;;;;;;37.38;4.80;;;;;;;9.92;100.00;96707.63;4946336;28;20087;-82
2023/03/13 08:24:40;;;;;;;29.60;4.53;;;;;;;9.95;100.00;96701.09;4953664;28;20486;-82
2023/03/13 08:27:10;;;;;;;22.02;4.18;;;;;;;9.98;100.00;96710.38;4971235;28;20026;-82
2023/03/13 08:29:39;;;;;;;27.75;4.47;;;;;;;10.00;100.00;96705.69;4971464;28;20110;-82
2023/03/13 08:32:07;;;;;;;32.65;4.80;;;;;;;9.98;100.00;96707.72;4940331;28;20034;-82
2023/03/13 08:34:38;;;;;;;26.75;4.22;;;;;;;10.02;100.00;96722.88;4969545;28;20031;-82
2023/03/13 08:37:08;;;;;;;25.42;3.60;;;;;;;9.99;100.00;96718.06;4953724;28;20031;-82
2023/03/13 08:39:38;;;;;;;24.70;3.58;;;;;;;9.99;100.00;96725.97;4970600;28;20038;-82
2023/03/13 08:42:11;;;;;;;24.63;3.70;;;;;;;9.98;100.00;96729.66;4954396;28;20035;-82
2023/03/13 08:44:39;;;;;;;22.92;3.47;;;;;;;9.98;100.00;96727.00;4952849;28;20050;-82
2023/03/13 08:47:08;;;;;;;20.55;2.72;;;;;;;9.96;100.00;96728.25;4938705;28;20163;-82
2023/03/13 08:49:38;;;;;;;16.95;2.97;;;;;;;9.97;100.00;96729.88;4949586;28;20129;-82
2023/03/13 08:52:06;;;;;;;19.63;2.75;;;;;;;9.97;100.00;96730.66;4949137;28;20046;-83
2023/03/13 08:54:34;;;;;;;17.75;2.80;;;;;;;9.95;100.00;96735.41;4939253;28;20034;-82
2023/03/13 08:57:02;;;;;;;21.40;3.35;;;;;;;9.99;100.00;96727.78;4939261;28;20047;-82
2023/03/13 08:59:30;;;;;;;20.00;2.65;;;;;;;9.94;100.00;96731.13;4957862;28;20035;-82
2023/03/13 09:01:58;;;;;;;14.35;2.00;;;;;;;9.95;100.00;96730.13;4953552;28;20030;-83
2023/03/13 09:04:25;;;;;;;13.60;1.85;;;;;;;9.89;100.00;96734.47;4959627;28;20039;-82
2023/03/13 09:06:54;;;;;;;11.95;1.70;;;;;;;9.89;100.00;96734.47;4952658;28;20039;-82
2023/03/13 09:09:22;;;;;;;12.40;1.77;;;;;;;9.88;100.00;96732.06;4938874;28;20140;-82
2023/03/13 09:11:51;;;;;;;9.80;1.77;;;;;;;9.87;100.00;96726.00;4954032;28;20128;-82
2023/03/13 09:14:18;;;;;;;9.35;1.45;;;;;;;9.87;100.00;96733.09;4951165;28;20101;-82
2023/03/13 09:16:47;;;;;;;13.68;1.67;;;;;;;9.91;100.00;96732.41;4940976;28;20049;-82
2023/03/13 09:19:14;;;;;;;10.93;1.77;;;;;;;9.93;100.00;96738.25;4931229;28;20038;-82
2023/03/13 09:21:43;;;;;;;10.95;1.73;;;;;;;9.98;100.00;96742.84;4969429;28;20053;-82
2023/03/13 09:24:10;;;;;;;11.00;1.63;;;;;;;9.97;100.00;96741.22;4953051;28;20387;-82
2023/03/13 09:26:39;;;;;;;9.93;1.55;;;;;;;10.01;100.00;96739.75;4904170;28;20684;-82
2023/03/13 09:29:07;;;;;;;15.98;1.42;;;;;;;9.99;100.00;96744.44;4940881;28;20038;-82
2023/03/13 09:31:37;;;;;;;8.82;1.27;;;;;;;10.05;100.00;96753.25;4953022;28;20043;-82
2023/03/13 09:34:06;;;;;;;11.02;1.50;;;;;;;10.07;100.00;96747.72;4941691;28;20031;-82
2023/03/13 09:36:34;;;;;;;10.23;1.23;;;;;;;10.11;100.00;96756.81;4972042;28;20050;-82
2023/03/13 09:39:02;;;;;;;6.00;1.10;;;;;;;10.21;100.00;96753.59;4970490;28;20043;-82
2023/03/13 09:41:39;;;;;;;9.07;1.20;;;;;;;10.26;100.00;96754.47;4955235;28;20042;-82
2023/03/13 09:44:18;;;;;;;6.63;0.80;;;;;;;10.38;100.00;96748.34;4952005;28;20062;-82
2023/03/13 09:47:01;;;;;;;5.80;0.68;;;;;;;10.37;100.00;96744.91;4966257;28;20449;-82
2023/03/13 09:49:33;;;;;;;2.22;0.50;;;;;;;10.37;100.00;96750.19;4959175;28;20065;-82
2023/03/13 09:52:15;;;;;;;3.33;0.50;;;;;;;10.40;100.00;96762.91;4941974;28;20050;-82
2023/03/13 09:54:47;;;;;;;3.08;0.20;;;;;;;10.43;100.00;96761.66;4937406;28;20089;-82
2023/03/13 09:57:35;;;;;;;1.05;0.35;;;;;;;10.51;100.00;96749.97;4931915;28;20030;-82
2023/03/13 10:00:32;;;;;;;2.47;0.30;;;;;;;10.58;100.00;96755.88;4917443;28;20497;-82
2023/03/13 10:03:07;;;;;;;3.08;0.35;;;;;;;10.58;100.00;96761.16;4905373;29;20078;-82
2023/03/13 10:05:48;;;;;;;1.20;0.20;;;;;;;10.64;100.00;96762.06;4934322;28;20823;-82
2023/03/13 10:08:22;;;;;;;0.88;0.22;;;;;;;10.66;100.00;96762.63;4921645;29;20218;-82
2023/03/13 10:10:57;;;;;;;3.30;0.30;;;;;;;10.71;100.00;96762.72;4936158;28;20031;-81
2023/03/13 10:13:56;;;;;;;0.50;0.30;;;;;;;10.84;100.00;96769.56;4937344;28;20030;-82
2023/03/13 10:16:37;;;;;;;1.02;0.10;;;;;;;10.99;100.00;96763.72;4896480;28;20043;-82
2023/03/13 10:19:19;;;;;;;0.00;0.00;;;;;;;11.16;100.00;96763.75;4926858;28;20070;-82
2023/03/13 10:21:53;;;;;;;0.57;0.10;;;;;;;11.28;100.00;96768.16;4942855;28;20168;-81
2023/03/13 10:24:33;;;;;;;0.20;0.10;;;;;;;11.25;100.00;96764.16;4944385;28;20036;-82
2023/03/13 10:27:01;;;;;;;0.10;0.10;;;;;;;11.25;100.00;96772.09;4906346;28;20041;-81
2023/03/13 10:29:30;;;;;;;0.13;0.00;;;;;;;11.33;100.00;96770.88;4932211;29;20035;-82
2023/03/13 10:31:59;;;;;;;0.10;0.10;;;;;;;11.31;100.00;96777.47;4939680;29;20047;-82
2023/03/13 10:34:43;;;;;;;0.15;0.10;;;;;;;11.35;100.00;96778.59;4932702;29;20040;-82
2023/03/13 10:37:17;;;;;;;0.63;0.20;;;;;;;11.27;100.00;96774.50;4917367;29;20127;-82
2023/03/13 10:39:46;;;;;;;1.00;0.20;;;;;;;11.20;100.00;96782.56;4940392;28;20039;-81
2023/03/13 10:42:28;;;;;;;2.08;0.20;;;;;;;11.24;100.00;96788.19;4944705;28;20063;-81
2023/03/13 10:44:59;;;;;;;2.10;0.40;;;;;;;11.19;100.00;96790.75;4928946;28;20062;-82
2023/03/13 10:47:28;;;;;;;1.23;0.28;;;;;;;11.14;100.00;96802.84;4947442;28;20058;-82
2023/03/13 10:49:58;;;;;;;2.28;0.30;;;;;;;11.17;100.00;96801.56;4954754;28;20046;-82
2023/03/13 10:52:44;;;;;;;1.48;0.20;;;;;;;11.20;100.00;96793.16;4955100;28;20568;-82
2023/03/13 10:55:18;;;;;;;3.80;0.45;;;;;;;11.16;100.00;96792.03;4971349;28;20038;-82
2023/03/13 10:58:02;;;;;;;4.22;0.73;;;;;;;11.24;100.00;96796.94;4968348;28;20035;-81
2023/03/13 11:00:38;;;;;;;2.95;0.55;;;;;;;11.34;100.00;96800.78;4954329;28;20041;-82
2023/03/13 11:03:22;;;;;;;3.90;0.55;;;;;;;11.41;100.00;96810.16;4956272;28;20134;-82
2023/03/13 11:06:01;;;;;;;3.97;0.80;;;;;;;11.45;100.00;96822.91;4972334;28;20038;-82
2023/03/13 11:08:36;;;;;;;4.45;0.80;;;;;;;11.46;100.00;96825.31;4967716;28;20066;-82
2023/03/13 11:11:18;;;;;;;5.00;0.77;;;;;;;11.55;100.00;96828.34;4962743;28;20031;-82
2023/03/13 11:13:46;;;;;;;4.78;0.57;;;;;;;11.53;100.00;96828.56;4929736;28;20440;-82
2023/03/13 11:16:28;;;;;;;2.88;0.50;;;;;;;11.58;100.00;96842.94;4952832;28;20033;-81
2023/03/13 11:19:13;;;;;;;6.18;0.93;;;;;;;11.51;100.00;96837.81;4952907;28;20093;-82
2023/03/13 11:22:13;;;;;;;4.88;0.90;;;;;;;11.52;100.00;96834.91;4946442;28;20092;-82
2023/03/13 11:25:13;;;;;;;5.80;0.73;;;;;;;11.56;100.00;96837.09;4968327;28;20431;-82
2023/03/13 11:27:55;;;;;;;4.47;0.80;;;;;;;11.68;100.00;96827.22;4942633;28;20047;-82
2023/03/13 11:30:25;;;;;;;8.63;1.33;;;;;;;11.74;100.00;96833.38;4956410;28;20038;-82
2023/03/13 11:33:09;;;;;;;10.13;1.30;;;;;;;11.77;100.00;96832.91;4952804;28;20042;-82
2023/03/13 11:35:45;;;;;;;13.95;3.38;;;;;;;11.72;100.00;96832.84;4939915;28;20027;-82
2023/03/13 11:38:19;;;;;;;12.95;1.52;;;;;;;11.60;100.00;96833.72;4944552;28;20046;-82
2023/03/13 11:41:16;;;;;;;10.38;1.38;;;;;;;11.51;100.00;96828.03;4967375;28;20398;-82
2023/03/13 11:44:29;;;;;;;10.10;1.63;;;;;;;11.46;100.00;96833.25;4866274;28;20047;-82
2023/03/13 11:47:02;;;;;;;6.80;0.95;;;;;;;11.42;100.00;96842.66;4949200;28;20455;-81
2023/03/13 11:49:33;;;;;;;10.65;0.95;;;;;;;11.34;100.00;96825.38;4930025;29;20047;-82
2023/03/13 11:52:18;;;;;;;7.72;0.90;;;;;;;11.34;100.00;96841.22;4943380;28;20039;-81
2023/03/13 11:54:53;;;;;;;6.65;1.67;;;;;;;11.32;100.00;96839.88;4922461;29;20087;-82
2023/03/13 11:57:56;;;;;;;5.75;1.02;;;;;;;11.32;100.00;96839.88;4921923;29;20467;-82
2023/03/13 12:00:33;;;;;;;6.15;1.08;;;;;;;11.37;100.00;96837.31;4903021;28;20487;-82